createdAt,value
2023-02-17T00:00:07.247Z,95.00
2023-02-17T00:01:07.173Z,94.90
2023-02-17T00:02:07.292Z,94.70
2023-02-17T00:03:07.156Z,94.59
2023-02-17T00:04:07.152Z,94.59
2023-02-17T00:05:07.144Z,94.70
2023-02-17T00:06:07.339Z,94.59
2023-02-17T00:07:07.104Z,94.49
2023-02-17T00:08:07.160Z,94.49
2023-02-17T00:09:07.075Z,94.49
2023-02-17T00:10:07.109Z,94.59
2023-02-17T00:11:07.065Z,94.70
2023-02-17T00:12:07.064Z,94.70
2023-02-17T00:13:07.036Z,94.65
2023-02-17T00:14:07.091Z,94.75
2023-02-17T00:15:07.031Z,94.75
2023-02-17T00:16:07.411Z,94.75
2023-02-17T00:17:07.011Z,94.65
2023-02-17T00:18:07.016Z,94.65
2023-02-17T00:19:07.055Z,94.65
2023-02-17T00:20:06.995Z,94.75
2023-02-17T00:21:06.971Z,94.75
2023-02-17T00:22:06.993Z,94.55
2023-02-17T00:23:06.982Z,94.55
2023-02-17T00:24:06.957Z,94.55
2023-02-17T00:25:06.910Z,94.45
2023-02-17T00:26:07.300Z,94.55
2023-02-17T00:27:06.913Z,94.55
2023-02-17T00:28:06.898Z,94.55
2023-02-17T00:29:06.889Z,94.45
2023-02-17T00:30:06.964Z,94.55
2023-02-17T00:31:06.951Z,94.55
2023-02-17T00:32:06.965Z,94.45
2023-02-17T00:33:06.810Z,94.45
2023-02-17T00:34:06.812Z,94.24
2023-02-17T00:35:06.859Z,94.24
2023-02-17T00:36:07.127Z,94.24
2023-02-17T00:37:06.798Z,94.24
2023-02-17T00:38:06.788Z,94.24
2023-02-17T00:39:06.798Z,94.24
2023-02-17T00:40:06.776Z,94.24
2023-02-17T00:41:06.718Z,94.24
2023-02-17T00:42:06.767Z,94.24
2023-02-17T00:43:06.698Z,94.24
2023-02-17T00:44:06.737Z,94.20
2023-02-17T00:45:06.713Z,94.20
2023-02-17T00:46:07.149Z,94.10
2023-02-17T00:47:06.676Z,94.20
2023-02-17T00:48:06.707Z,94.20
2023-02-17T00:49:06.677Z,94.10
2023-02-17T00:50:06.643Z,94.10
2023-02-17T00:51:06.603Z,94.10
2023-02-17T00:52:06.684Z,94.10
2023-02-17T00:53:16.057Z,94.20
2023-02-17T00:54:06.644Z,94.30
2023-02-17T00:55:06.564Z,94.20
2023-02-17T00:56:06.858Z,94.10
2023-02-17T00:57:06.541Z,94.10
2023-02-17T00:58:06.539Z,93.99
2023-02-17T00:59:06.575Z,93.99
2023-02-17T01:00:06.514Z,93.89
2023-02-17T01:01:06.508Z,93.89
2023-02-17T01:02:06.515Z,94.10
2023-02-17T01:03:06.509Z,94.10
2023-02-17T01:04:06.525Z,94.20
2023-02-17T01:05:06.532Z,94.20
2023-02-17T01:06:06.712Z,94.10
2023-02-17T01:07:06.483Z,94.10
2023-02-17T01:08:06.438Z,94.20
2023-02-17T01:09:06.474Z,94.20
2023-02-17T01:10:06.467Z,94.20
2023-02-17T01:11:06.402Z,94.20
2023-02-17T01:12:06.421Z,94.20
2023-02-17T01:13:06.393Z,94.20
2023-02-17T01:14:06.403Z,94.30
2023-02-17T01:15:06.410Z,94.40
2023-02-17T01:16:06.611Z,94.51
2023-02-17T01:17:06.350Z,94.71
2023-02-17T01:18:06.320Z,94.71
2023-02-17T01:19:06.296Z,94.71
2023-02-17T01:20:06.309Z,94.71
2023-02-17T01:21:06.306Z,94.60
2023-02-17T01:22:06.246Z,94.71
2023-02-17T01:23:06.281Z,94.81
2023-02-17T01:24:06.273Z,94.85
2023-02-17T01:25:06.423Z,94.92
2023-02-17T01:26:06.530Z,94.92
2023-02-17T01:27:06.208Z,95.02
2023-02-17T01:28:06.179Z,95.02
2023-02-17T01:29:06.243Z,95.12
2023-02-17T01:30:06.245Z,95.12
2023-02-17T01:31:06.262Z,95.12
2023-02-17T01:32:06.167Z,95.12
2023-02-17T01:33:06.170Z,95.12
2023-02-17T01:34:06.171Z,95.22
2023-02-17T01:35:06.133Z,95.12
2023-02-17T01:36:06.366Z,95.12
2023-02-17T01:37:06.115Z,95.12
2023-02-17T01:38:06.068Z,95.22
2023-02-17T01:39:06.089Z,95.22
2023-02-17T01:40:06.064Z,95.32
2023-02-17T01:41:06.040Z,95.32
2023-02-17T01:42:06.017Z,95.32
2023-02-17T01:43:06.020Z,95.32
2023-02-17T01:44:06.055Z,95.32
2023-02-17T01:45:06.014Z,95.22
2023-02-17T01:46:06.301Z,95.32
2023-02-17T01:47:05.995Z,95.43
2023-02-17T01:48:05.956Z,95.43
2023-02-17T01:49:06.022Z,95.53
2023-02-17T01:50:05.934Z,95.63
2023-02-17T01:51:05.945Z,95.63
2023-02-17T01:52:05.891Z,95.63
2023-02-17T01:53:05.916Z,95.63
2023-02-17T01:54:05.897Z,95.63
2023-02-17T01:55:05.923Z,95.53
2023-02-17T01:56:06.252Z,95.63
2023-02-17T01:57:05.873Z,95.73
2023-02-17T01:58:05.848Z,95.84
2023-02-17T01:59:05.841Z,95.84
2023-02-17T02:00:05.862Z,95.84
2023-02-17T02:01:05.828Z,95.88
2023-02-17T02:02:05.885Z,95.94
2023-02-17T02:03:05.821Z,96.08
2023-02-17T02:04:05.749Z,96.04
2023-02-17T02:05:05.791Z,96.04
2023-02-17T02:06:06.182Z,96.25
2023-02-17T02:07:05.736Z,96.25
2023-02-17T02:08:05.756Z,96.34
2023-02-17T02:09:05.726Z,96.49
2023-02-17T02:10:05.705Z,96.59
2023-02-17T02:11:05.722Z,96.70
2023-02-17T02:12:05.657Z,96.80
2023-02-17T02:13:05.653Z,97.00
2023-02-17T02:14:05.699Z,97.00
2023-02-17T02:15:05.646Z,97.21
2023-02-17T02:16:05.985Z,97.21
2023-02-17T02:17:05.626Z,97.21
2023-02-17T02:18:05.597Z,97.31
2023-02-17T02:19:05.641Z,97.31
2023-02-17T02:20:05.566Z,97.31
2023-02-17T02:21:05.593Z,97.21
2023-02-17T02:22:05.568Z,97.21
2023-02-17T02:23:05.577Z,97.21
2023-02-17T02:24:05.575Z,97.21
2023-02-17T02:25:05.560Z,97.21
2023-02-17T02:26:05.740Z,97.21
2023-02-17T02:27:05.529Z,97.21
2023-02-17T02:28:05.508Z,97.11
2023-02-17T02:29:05.529Z,97.11
2023-02-17T02:30:05.474Z,97.00
2023-02-17T02:31:05.465Z,97.00
2023-02-17T02:32:05.433Z,97.00
2023-02-17T02:33:05.422Z,96.91
2023-02-17T02:34:05.482Z,96.91
2023-02-17T02:35:05.429Z,96.91
2023-02-17T02:36:05.720Z,96.80
2023-02-17T02:37:05.391Z,96.70
2023-02-17T02:38:06.960Z,96.49
2023-02-17T02:39:05.423Z,96.29
2023-02-17T02:40:05.332Z,96.25
2023-02-17T02:41:05.357Z,96.14
2023-02-17T02:42:05.306Z,96.04
2023-02-17T02:43:05.343Z,95.94
2023-02-17T02:44:05.336Z,95.73
2023-02-17T02:45:05.322Z,95.63
2023-02-17T02:46:05.821Z,95.53
2023-02-17T02:47:05.283Z,95.22
2023-02-17T02:48:05.271Z,95.22
2023-02-17T02:49:05.277Z,95.02
2023-02-17T02:50:05.228Z,94.81
2023-02-17T02:51:05.214Z,94.71
2023-02-17T02:52:05.344Z,94.60
2023-02-17T02:53:05.229Z,94.60
2023-02-17T02:54:05.165Z,94.60
2023-02-17T02:55:05.189Z,94.30
2023-02-17T02:56:05.481Z,94.30
2023-02-17T02:57:05.186Z,94.26
2023-02-17T02:58:05.123Z,94.26
2023-02-17T02:59:05.128Z,94.30
2023-02-17T03:00:05.096Z,94.26
2023-02-17T03:01:05.153Z,94.15
2023-02-17T03:02:05.116Z,94.15
2023-02-17T03:03:05.069Z,94.06
2023-02-17T03:04:05.139Z,94.06
2023-02-17T03:05:05.084Z,94.06
2023-02-17T03:06:05.345Z,93.95
2023-02-17T03:07:05.074Z,93.95
2023-02-17T03:08:05.055Z,93.85
2023-02-17T03:09:05.050Z,93.95
2023-02-17T03:10:05.018Z,93.85
2023-02-17T03:11:04.969Z,93.85
2023-02-17T03:12:04.951Z,93.74
2023-02-17T03:13:05.006Z,93.74
2023-02-17T03:14:04.962Z,93.65
2023-02-17T03:15:04.948Z,93.54
2023-02-17T03:16:05.333Z,93.54
2023-02-17T03:17:04.918Z,93.44
2023-02-17T03:18:04.980Z,93.44
2023-02-17T03:19:04.880Z,93.44
2023-02-17T03:20:04.880Z,93.33
2023-02-17T03:21:04.854Z,93.24
2023-02-17T03:22:04.841Z,93.24
2023-02-17T03:23:04.849Z,93.13
2023-02-17T03:24:04.833Z,92.93
2023-02-17T03:25:04.828Z,92.83
2023-02-17T03:26:05.140Z,92.83
2023-02-17T03:27:04.808Z,92.83
2023-02-17T03:28:04.785Z,92.83
2023-02-17T03:29:04.783Z,92.72
2023-02-17T03:30:04.801Z,92.42
2023-02-17T03:31:04.813Z,92.52
2023-02-17T03:32:04.783Z,92.52
2023-02-17T03:33:04.704Z,92.72
2023-02-17T03:34:04.704Z,92.62
2023-02-17T03:35:04.686Z,92.62
2023-02-17T03:36:05.023Z,92.42
2023-02-17T03:37:04.657Z,92.32
2023-02-17T03:38:04.664Z,92.21
2023-02-17T03:39:04.662Z,92.21
2023-02-17T03:40:04.638Z,92.32
2023-02-17T03:41:04.642Z,92.21
2023-02-17T03:42:04.616Z,92.21
2023-02-17T03:43:04.626Z,92.21
2023-02-17T03:44:04.560Z,92.17
2023-02-17T03:45:04.558Z,92.17
2023-02-17T03:46:05.105Z,92.17
2023-02-17T03:47:04.589Z,92.07
2023-02-17T03:48:04.578Z,91.96
2023-02-17T03:49:04.535Z,91.96
2023-02-17T03:50:04.498Z,91.86
2023-02-17T03:51:11.158Z,91.86
2023-02-17T03:52:04.514Z,91.76
2023-02-17T03:53:04.464Z,91.86
2023-02-17T03:54:04.448Z,91.76
2023-02-17T03:55:04.437Z,91.76
2023-02-17T03:56:04.806Z,91.56
2023-02-17T03:57:04.440Z,91.56
2023-02-17T03:58:04.428Z,91.66
2023-02-17T03:59:04.406Z,91.76
2023-02-17T04:00:04.378Z,91.76
2023-02-17T04:01:04.383Z,91.56
2023-02-17T04:02:04.415Z,91.56
2023-02-17T04:03:04.361Z,91.66
2023-02-17T04:04:04.385Z,91.56
2023-02-17T04:05:04.324Z,91.66
2023-02-17T04:06:04.780Z,91.66
2023-02-17T04:07:04.319Z,91.66
2023-02-17T04:08:04.325Z,91.56
2023-02-17T04:09:04.284Z,91.35
2023-02-17T04:10:06.273Z,91.35
2023-02-17T04:11:04.240Z,91.35
2023-02-17T04:12:04.248Z,91.05
2023-02-17T04:13:04.240Z,91.05
2023-02-17T04:14:04.265Z,91.15
2023-02-17T04:15:04.193Z,91.05
2023-02-17T04:16:04.574Z,91.05
2023-02-17T04:17:04.240Z,91.05
2023-02-17T04:18:04.195Z,90.94
2023-02-17T04:19:04.163Z,91.15
2023-02-17T04:20:04.161Z,91.15
2023-02-17T04:21:04.146Z,91.15
2023-02-17T04:22:04.190Z,91.05
2023-02-17T04:23:04.122Z,90.84
2023-02-17T04:24:04.143Z,90.74
2023-02-17T04:25:04.073Z,90.74
2023-02-17T04:26:04.533Z,90.74
2023-02-17T04:27:04.087Z,90.64
2023-02-17T04:28:04.068Z,90.64
2023-02-17T04:29:04.057Z,90.53
2023-02-17T04:30:04.064Z,90.33
2023-02-17T04:31:04.105Z,90.43
2023-02-17T04:32:04.050Z,90.33
2023-02-17T04:33:04.055Z,90.33
2023-02-17T04:34:04.009Z,90.23
2023-02-17T04:35:03.986Z,90.33
2023-02-17T04:36:04.250Z,90.23
2023-02-17T04:37:03.961Z,90.23
2023-02-17T04:38:03.962Z,90.33
2023-02-17T04:39:03.895Z,90.23
2023-02-17T04:40:03.919Z,90.23
2023-02-17T04:41:03.890Z,90.02
2023-02-17T04:42:03.929Z,90.02
2023-02-17T04:43:03.844Z,89.82
2023-02-17T04:44:03.858Z,89.67
2023-02-17T04:45:03.816Z,89.58
2023-02-17T04:46:04.312Z,89.58
2023-02-17T04:47:03.796Z,89.58
2023-02-17T04:48:03.818Z,89.47
2023-02-17T04:49:03.802Z,89.47
2023-02-17T04:50:03.795Z,89.58
2023-02-17T04:51:03.756Z,89.67
2023-02-17T04:52:03.773Z,89.67
2023-02-17T04:53:03.785Z,89.78
2023-02-17T04:54:03.753Z,89.47
2023-02-17T04:55:03.758Z,89.37
2023-02-17T04:56:03.917Z,89.47
2023-02-17T04:57:03.705Z,89.47
2023-02-17T04:58:03.678Z,89.47
2023-02-17T04:59:03.696Z,89.47
2023-02-17T05:00:03.674Z,89.47
2023-02-17T05:01:03.644Z,89.47
2023-02-17T05:02:03.666Z,89.26
2023-02-17T05:03:03.627Z,89.26
2023-02-17T05:04:03.637Z,89.37
2023-02-17T05:05:03.608Z,89.37
2023-02-17T05:06:03.911Z,89.37
2023-02-17T05:07:03.595Z,89.37
2023-02-17T05:08:03.593Z,89.47
2023-02-17T05:09:03.559Z,89.67
2023-02-17T05:10:03.556Z,89.67
2023-02-17T05:11:03.547Z,89.78
2023-02-17T05:12:03.535Z,89.67
2023-02-17T05:13:03.481Z,89.78
2023-02-17T05:14:03.537Z,89.78
2023-02-17T05:15:03.463Z,89.88
2023-02-17T05:16:03.904Z,89.88
2023-02-17T05:17:03.441Z,89.58
2023-02-17T05:18:03.676Z,89.47
2023-02-17T05:19:03.413Z,89.58
2023-02-17T05:20:03.439Z,89.67
2023-02-17T05:21:03.420Z,89.67
2023-02-17T05:22:03.424Z,89.67
2023-02-17T05:23:03.434Z,89.67
2023-02-17T05:24:03.382Z,89.78
2023-02-17T05:25:03.372Z,89.78
2023-02-17T05:26:03.369Z,89.78
2023-02-17T05:27:03.340Z,89.92
2023-02-17T05:28:03.341Z,90.02
2023-02-17T05:29:03.294Z,90.12
2023-02-17T05:30:03.381Z,90.12
2023-02-17T05:31:03.306Z,89.98
2023-02-17T05:32:03.320Z,89.88
2023-02-17T05:33:03.244Z,89.92
2023-02-17T05:34:03.257Z,89.92
2023-02-17T05:35:03.290Z,90.12
2023-02-17T05:36:03.544Z,89.98
2023-02-17T05:37:03.236Z,89.98
2023-02-17T05:38:03.227Z,89.88
2023-02-17T05:39:03.195Z,89.88
2023-02-17T05:40:03.199Z,89.98
2023-02-17T05:41:03.148Z,89.88
2023-02-17T05:42:03.174Z,89.88
2023-02-17T05:43:03.146Z,89.98
2023-02-17T05:44:03.209Z,89.98
2023-02-17T05:45:03.127Z,89.88
2023-02-17T05:46:03.171Z,89.88
2023-02-17T05:47:03.117Z,89.78
2023-02-17T05:48:03.080Z,89.78
2023-02-17T05:49:03.070Z,89.78
2023-02-17T05:50:03.090Z,89.78
2023-02-17T05:51:03.032Z,89.78
2023-02-17T05:52:03.071Z,89.88
2023-02-17T05:53:03.032Z,89.78
2023-02-17T05:54:03.100Z,89.78
2023-02-17T05:55:03.010Z,89.67
2023-02-17T05:56:03.013Z,89.88
2023-02-17T05:57:02.964Z,89.98
2023-02-17T05:58:02.966Z,89.98
2023-02-17T05:59:02.945Z,89.88
2023-02-17T06:00:02.968Z,89.98
2023-02-17T06:01:02.918Z,89.98
2023-02-17T06:02:02.949Z,90.08
2023-02-17T06:03:02.946Z,90.08
2023-02-17T06:04:02.897Z,90.08
2023-02-17T06:05:02.980Z,90.08
2023-02-17T06:06:02.867Z,90.08
2023-02-17T06:07:02.849Z,90.08
2023-02-17T06:08:02.865Z,90.08
2023-02-17T06:09:02.847Z,90.08
2023-02-17T06:10:02.878Z,90.08
2023-02-17T06:11:02.816Z,90.08
2023-02-17T06:12:02.801Z,90.08
2023-02-17T06:14:15.479Z,90.19
2023-02-17T06:15:13.813Z,90.08
2023-02-17T06:16:13.937Z,90.08
2023-02-17T06:17:13.743Z,90.08
2023-02-17T06:18:13.724Z,90.08
2023-02-17T06:19:13.771Z,89.98
2023-02-17T06:20:13.733Z,90.19
2023-02-17T06:21:13.744Z,90.19
2023-02-17T06:22:13.700Z,90.19
2023-02-17T06:23:13.679Z,90.39
2023-02-17T06:24:13.732Z,90.19
2023-02-17T06:25:13.677Z,90.19
2023-02-17T06:26:13.674Z,90.29
2023-02-17T06:27:13.616Z,90.29
2023-02-17T06:28:13.605Z,90.39
2023-02-17T06:29:13.629Z,90.49
2023-02-17T06:30:13.606Z,90.49
2023-02-17T06:31:13.697Z,90.49
2023-02-17T06:32:13.651Z,90.49
2023-02-17T06:33:13.579Z,90.49
2023-02-17T06:34:13.557Z,90.49
2023-02-17T06:35:13.571Z,90.49
2023-02-17T06:36:13.497Z,90.49
2023-02-17T06:37:13.553Z,90.59
2023-02-17T06:38:13.532Z,90.70
2023-02-17T06:39:13.479Z,90.70
2023-02-17T06:40:28.894Z,90.59
2023-02-17T06:41:13.456Z,90.70
2023-02-17T06:42:13.479Z,90.90
2023-02-17T06:43:49.120Z,90.80
2023-02-17T06:44:13.406Z,90.80
2023-02-17T06:45:20.424Z,90.80
2023-02-17T06:46:13.450Z,90.80
2023-02-17T06:47:13.386Z,90.80
2023-02-17T06:48:13.361Z,90.80
2023-02-17T06:49:13.369Z,90.80
2023-02-17T06:50:13.356Z,90.80
2023-02-17T06:51:13.359Z,90.80
2023-02-17T06:52:13.340Z,90.80
2023-02-17T06:53:13.292Z,90.90
2023-02-17T06:54:13.303Z,90.80
2023-02-17T06:55:13.310Z,90.90
2023-02-17T06:56:13.372Z,90.90
2023-02-17T06:57:13.293Z,90.90
2023-02-17T06:58:13.282Z,90.90
2023-02-17T06:59:13.306Z,90.90
2023-02-17T07:00:13.312Z,90.90
2023-02-17T07:01:13.323Z,90.90
2023-02-17T07:02:13.334Z,90.80
2023-02-17T07:03:13.334Z,91.00
2023-02-17T07:04:13.216Z,91.11
2023-02-17T07:05:13.321Z,91.20
2023-02-17T07:06:13.209Z,91.41
2023-02-17T07:07:13.225Z,91.61
2023-02-17T07:08:13.175Z,91.72
2023-02-17T07:09:13.209Z,91.82
2023-02-17T07:10:13.117Z,92.02
2023-02-17T07:11:13.128Z,92.23
2023-02-17T07:12:13.100Z,92.43
2023-02-17T07:13:13.097Z,92.54
2023-02-17T07:14:13.078Z,92.74
2023-02-17T07:15:13.188Z,92.94
2023-02-17T07:16:13.083Z,93.15
2023-02-17T07:17:13.052Z,93.35
2023-02-17T07:18:12.995Z,93.55
2023-02-17T07:19:13.020Z,93.76
2023-02-17T07:20:13.050Z,94.07
2023-02-17T07:21:13.008Z,94.27
2023-02-17T07:22:12.989Z,94.37
2023-02-17T07:23:12.993Z,94.58
2023-02-17T07:24:12.981Z,94.73
2023-02-17T07:25:12.987Z,94.82
2023-02-17T07:26:12.934Z,94.82
2023-02-17T07:27:12.933Z,94.82
2023-02-17T07:28:12.878Z,94.82
2023-02-17T07:29:12.946Z,94.73
2023-02-17T07:30:12.948Z,94.82
2023-02-17T07:31:13.076Z,94.78
2023-02-17T07:32:12.853Z,94.93
2023-02-17T07:33:12.834Z,95.03
2023-02-17T07:34:12.839Z,95.13
2023-02-17T07:35:12.841Z,95.34
2023-02-17T07:36:12.785Z,95.34
2023-02-17T07:37:12.814Z,95.44
2023-02-17T07:38:12.772Z,95.44
2023-02-17T07:39:12.797Z,95.44
2023-02-17T07:40:12.758Z,95.44
2023-02-17T07:41:12.727Z,95.34
2023-02-17T07:42:12.716Z,95.34
2023-02-17T07:43:12.755Z,95.34
2023-02-17T07:44:12.713Z,95.34
2023-02-17T07:45:12.707Z,95.23
2023-02-17T07:46:12.721Z,95.13
2023-02-17T07:47:12.680Z,95.13
2023-02-17T07:48:12.633Z,95.09
2023-02-17T07:49:12.725Z,94.98
2023-02-17T07:50:12.615Z,94.78
2023-02-17T07:51:12.621Z,94.78
2023-02-17T07:52:12.622Z,94.78
2023-02-17T07:53:12.607Z,94.68
2023-02-17T07:54:12.558Z,94.58
2023-02-17T07:55:12.598Z,94.37
2023-02-17T07:56:12.573Z,94.27
2023-02-17T07:57:12.832Z,94.17
2023-02-17T07:58:12.536Z,94.07
2023-02-17T07:59:12.585Z,94.07
2023-02-17T08:00:12.522Z,94.07
2023-02-17T08:01:12.492Z,94.07
2023-02-17T08:02:12.500Z,93.96
2023-02-17T08:03:12.506Z,93.86
2023-02-17T08:04:12.517Z,93.76
2023-02-17T08:05:12.472Z,93.55
2023-02-17T08:06:12.423Z,93.51
2023-02-17T08:07:12.449Z,93.51
2023-02-17T08:08:12.400Z,93.41
2023-02-17T08:09:12.410Z,93.21
2023-02-17T08:10:12.441Z,93.21
2023-02-17T08:11:12.402Z,93.00
2023-02-17T08:12:12.362Z,93.10
2023-02-17T08:13:12.386Z,93.00
2023-02-17T08:14:13.272Z,93.00
2023-02-17T08:15:12.387Z,93.00
2023-02-17T08:16:12.304Z,92.69
2023-02-17T08:17:12.334Z,92.69
2023-02-17T08:18:12.276Z,92.80
2023-02-17T08:19:12.329Z,92.69
2023-02-17T08:20:12.261Z,92.69
2023-02-17T08:21:12.258Z,92.49
2023-02-17T08:22:12.225Z,92.49
2023-02-17T08:23:12.265Z,92.49
2023-02-17T08:24:12.255Z,92.49
2023-02-17T08:25:12.401Z,92.39
2023-02-17T08:26:12.255Z,92.39
2023-02-17T08:27:12.174Z,92.39
2023-02-17T08:28:12.167Z,92.39
2023-02-17T08:29:12.185Z,92.39
2023-02-17T08:30:12.214Z,92.29
2023-02-17T08:31:12.296Z,92.29
2023-02-17T08:32:12.158Z,92.14
2023-02-17T08:33:12.105Z,92.19
2023-02-17T08:34:12.077Z,92.04
2023-02-17T08:35:12.297Z,91.94
2023-02-17T08:36:12.069Z,91.94
2023-02-17T08:37:12.088Z,92.04
2023-02-17T08:38:12.082Z,92.14
2023-02-17T08:39:12.037Z,92.04
2023-02-17T08:40:12.015Z,91.94
2023-02-17T08:41:12.096Z,91.94
2023-02-17T08:42:12.040Z,91.83
2023-02-17T08:43:11.990Z,91.83
2023-02-17T08:44:11.960Z,91.74
2023-02-17T08:45:12.219Z,91.83
2023-02-17T08:46:12.006Z,91.74
2023-02-17T08:47:11.969Z,91.74
2023-02-17T08:48:11.939Z,91.74
2023-02-17T08:49:12.000Z,91.63
2023-02-17T08:50:11.925Z,91.63
2023-02-17T08:51:11.891Z,91.33
2023-02-17T08:52:11.879Z,91.43
2023-02-17T08:53:11.899Z,91.53
2023-02-17T08:54:11.842Z,91.43
2023-02-17T08:55:11.945Z,91.53
2023-02-17T08:56:11.840Z,91.43
2023-02-17T08:57:11.862Z,91.43
2023-02-17T08:58:11.877Z,91.43
2023-02-17T08:59:11.847Z,91.33
2023-02-17T09:00:11.766Z,91.18
2023-02-17T09:01:11.851Z,91.28
2023-02-17T09:02:11.780Z,91.18
2023-02-17T09:03:11.763Z,91.08
2023-02-17T09:04:11.745Z,90.88
2023-02-17T09:05:11.815Z,90.77
2023-02-17T09:06:11.734Z,90.47
2023-02-17T09:07:11.695Z,90.67
2023-02-17T09:08:11.688Z,90.67
2023-02-17T09:09:11.694Z,90.36
2023-02-17T09:10:11.645Z,90.26
2023-02-17T09:11:11.686Z,90.16
2023-02-17T09:12:11.713Z,89.96
2023-02-17T09:13:11.627Z,90.06
2023-02-17T09:14:11.654Z,89.92
2023-02-17T09:15:11.647Z,89.81
2023-02-17T09:16:11.703Z,89.61
2023-02-17T09:17:11.646Z,89.51
2023-02-17T09:18:11.605Z,89.40
2023-02-17T09:19:11.625Z,89.10
2023-02-17T09:20:24.006Z,89.10
2023-02-17T09:21:12.730Z,89.20
2023-02-17T09:22:22.880Z,89.20
2023-02-17T09:23:12.538Z,89.20
2023-02-17T09:24:11.525Z,88.90
2023-02-17T09:25:11.492Z,88.79
2023-02-17T09:26:11.495Z,88.79
2023-02-17T09:27:11.519Z,88.69
2023-02-17T09:28:11.537Z,88.45
2023-02-17T09:29:11.448Z,88.34
2023-02-17T09:30:11.491Z,88.24
2023-02-17T09:31:11.578Z,88.34
2023-02-17T09:32:11.547Z,88.24
2023-02-17T09:33:11.411Z,88.04
2023-02-17T09:34:11.392Z,87.94
2023-02-17T09:35:11.394Z,87.84
2023-02-17T09:36:11.391Z,87.79
2023-02-17T09:37:11.413Z,87.69
2023-02-17T09:38:11.346Z,87.59
2023-02-17T09:39:13.564Z,87.38
2023-02-17T09:40:11.373Z,87.29
2023-02-17T09:41:11.386Z,87.29
2023-02-17T09:42:11.285Z,87.29
2023-02-17T09:43:11.367Z,86.98
2023-02-17T09:44:12.160Z,87.08
2023-02-17T09:45:12.933Z,87.18
2023-02-17T09:46:11.281Z,86.98
2023-02-17T09:47:11.348Z,86.77
2023-02-17T09:48:11.245Z,86.63
2023-02-17T09:49:11.224Z,86.53
2023-02-17T09:50:11.213Z,86.53
2023-02-17T09:51:12.644Z,86.22
2023-02-17T09:52:11.192Z,86.02
2023-02-17T09:53:11.170Z,86.22
2023-02-17T09:54:11.216Z,86.02
2023-02-17T09:55:11.171Z,86.02
2023-02-17T09:56:11.192Z,86.13
2023-02-17T09:57:11.161Z,85.78
2023-02-17T09:58:11.099Z,85.68
2023-02-17T09:59:11.107Z,85.37
2023-02-17T10:00:11.081Z,85.47
2023-02-17T10:01:11.111Z,85.58
2023-02-17T10:02:11.040Z,85.37
2023-02-17T10:03:13.232Z,85.06
2023-02-17T10:04:11.149Z,85.17
2023-02-17T10:05:11.127Z,85.17
2023-02-17T10:06:11.042Z,85.13
2023-02-17T10:07:10.990Z,84.92
2023-02-17T10:08:10.996Z,84.92
2023-02-17T10:09:12.906Z,84.82
2023-02-17T10:10:11.023Z,84.62
2023-02-17T10:11:10.978Z,84.82
2023-02-17T10:12:10.930Z,84.72
2023-02-17T10:13:11.032Z,84.72
2023-02-17T10:14:10.932Z,84.92
2023-02-17T10:15:13.456Z,84.62
2023-02-17T10:16:11.016Z,84.52
2023-02-17T10:17:10.899Z,84.62
2023-02-17T10:18:10.852Z,84.82
2023-02-17T10:19:10.863Z,84.82
2023-02-17T10:20:10.893Z,84.92
2023-02-17T10:21:12.916Z,84.42
2023-02-17T10:22:10.819Z,84.62
2023-02-17T10:23:10.838Z,84.52
2023-02-17T10:24:10.846Z,84.72
2023-02-17T10:25:10.806Z,84.82
2023-02-17T10:26:11.028Z,84.52
2023-02-17T10:27:10.774Z,84.82
2023-02-17T10:28:10.790Z,84.72
2023-02-17T10:29:10.784Z,85.03
2023-02-17T10:30:10.828Z,84.92
2023-02-17T10:31:10.803Z,85.03
2023-02-17T10:33:21.773Z,85.03
2023-02-17T10:34:21.692Z,84.82
2023-02-17T10:35:21.676Z,84.72
2023-02-17T10:36:21.676Z,84.82
2023-02-17T10:37:21.739Z,84.82
2023-02-17T10:38:21.884Z,85.03
2023-02-17T10:39:21.608Z,85.13
2023-02-17T10:40:21.724Z,85.13
2023-02-17T10:41:21.594Z,85.23
2023-02-17T10:42:21.631Z,85.13
2023-02-17T10:43:21.796Z,85.03
2023-02-17T10:44:21.630Z,84.72
2023-02-17T10:45:21.539Z,85.13
2023-02-17T10:46:21.556Z,85.23
2023-02-17T10:47:21.577Z,84.92
2023-02-17T10:48:21.537Z,85.13
2023-02-17T10:49:21.517Z,84.92
2023-02-17T10:50:21.614Z,84.82
2023-02-17T10:51:21.523Z,84.92
2023-02-17T10:52:21.490Z,85.03
2023-02-17T10:53:21.453Z,85.13
2023-02-17T10:54:21.469Z,85.33
2023-02-17T10:55:23.351Z,85.43
2023-02-17T10:56:21.487Z,85.43
2023-02-17T10:57:21.455Z,85.33
2023-02-17T10:58:21.439Z,85.43
2023-02-17T10:59:21.400Z,85.23
2023-02-17T11:00:21.404Z,85.33
2023-02-17T11:01:21.352Z,85.13
2023-02-17T11:02:21.411Z,84.92
2023-02-17T11:03:21.402Z,85.23
2023-02-17T11:04:21.352Z,85.13
2023-02-17T11:05:21.304Z,85.13
2023-02-17T11:06:21.311Z,85.23
2023-02-17T11:07:21.287Z,85.19
2023-02-17T11:08:21.322Z,84.82
2023-02-17T11:09:21.316Z,85.09
2023-02-17T11:10:21.287Z,85.19
2023-02-17T11:11:21.254Z,84.99
2023-02-17T11:12:21.241Z,84.99
2023-02-17T11:13:21.248Z,84.99
2023-02-17T11:14:21.225Z,85.03
2023-02-17T11:15:21.196Z,85.09
2023-02-17T11:16:21.219Z,85.09
2023-02-17T11:17:21.208Z,84.88
2023-02-17T11:18:21.219Z,84.48
2023-02-17T11:19:21.171Z,84.58
2023-02-17T11:20:21.150Z,84.48
2023-02-17T11:21:21.123Z,84.68
2023-02-17T11:22:21.122Z,84.58
2023-02-17T11:23:21.144Z,84.68
2023-02-17T11:24:21.093Z,84.38
2023-02-17T11:25:21.079Z,84.17
2023-02-17T11:26:21.072Z,84.28
2023-02-17T11:27:21.082Z,83.87
2023-02-17T11:28:23.587Z,83.56
2023-02-17T11:29:21.034Z,83.56
2023-02-17T11:30:21.135Z,83.56
2023-02-17T11:31:21.080Z,83.56
2023-02-17T11:32:21.116Z,83.46
2023-02-17T11:33:20.984Z,83.46
2023-02-17T11:34:21.002Z,83.22
2023-02-17T11:35:21.040Z,83.22
2023-02-17T11:36:20.984Z,82.92
2023-02-17T11:37:20.938Z,83.12
2023-02-17T11:38:20.992Z,82.92
2023-02-17T11:39:20.918Z,82.61
2023-02-17T11:40:22.315Z,82.71
2023-02-17T11:41:20.959Z,82.81
2023-02-17T11:42:20.892Z,82.37
2023-02-17T11:43:20.899Z,82.26
2023-02-17T11:44:20.876Z,82.17
2023-02-17T11:45:20.844Z,82.06
2023-02-17T11:46:20.973Z,81.05
2023-02-17T11:47:20.824Z,81.05
2023-02-17T11:48:20.850Z,81.05
2023-02-17T11:49:20.821Z,81.11
2023-02-17T11:50:35.238Z,81.01
2023-02-17T11:51:21.958Z,80.30
2023-02-17T11:52:22.522Z,80.40
2023-02-17T11:53:20.771Z,80.40
2023-02-17T11:54:20.745Z,80.50
2023-02-17T11:55:20.751Z,80.50
2023-02-17T11:56:20.795Z,80.60
2023-02-17T11:57:20.703Z,80.30
2023-02-17T11:58:20.749Z,80.40
2023-02-17T11:59:20.674Z,80.10
2023-02-17T12:00:20.677Z,80.10
2023-02-17T12:01:20.719Z,79.85
2023-02-17T12:02:20.653Z,79.14
2023-02-17T12:03:20.739Z,79.14
2023-02-17T12:04:20.643Z,79.14
2023-02-17T12:05:20.647Z,79.25
2023-02-17T12:06:20.605Z,79.31
2023-02-17T12:07:20.581Z,78.64
2023-02-17T12:08:20.617Z,78.84
2023-02-17T12:09:20.576Z,79.04
2023-02-17T12:10:20.602Z,79.14
2023-02-17T12:11:20.535Z,79.14
2023-02-17T12:12:20.574Z,79.04
2023-02-17T12:13:20.505Z,79.49
2023-02-17T12:14:20.534Z,79.90
2023-02-17T12:15:20.535Z,79.99
2023-02-17T12:16:20.517Z,80.30
2023-02-17T12:17:20.496Z,80.50
2023-02-17T12:18:20.481Z,80.30
2023-02-17T12:19:20.436Z,80.60
2023-02-17T12:20:20.496Z,80.30
2023-02-17T12:21:20.441Z,80.50
2023-02-17T12:22:20.444Z,80.40
2023-02-17T12:23:20.390Z,80.10
2023-02-17T12:24:20.390Z,79.49
2023-02-17T12:25:20.427Z,79.69
2023-02-17T12:26:20.367Z,79.69
2023-02-17T12:27:20.499Z,79.75
2023-02-17T12:28:20.368Z,79.49
2023-02-17T12:29:20.347Z,79.79
2023-02-17T12:30:20.481Z,79.59
2023-02-17T12:31:20.372Z,79.99
2023-02-17T12:32:20.326Z,79.79
2023-02-17T12:33:20.356Z,79.69
2023-02-17T12:34:20.302Z,79.79
2023-02-17T12:35:20.261Z,79.99
2023-02-17T12:36:20.252Z,79.90
2023-02-17T12:37:20.234Z,79.90
2023-02-17T12:38:20.282Z,79.79
2023-02-17T12:39:20.227Z,80.10
2023-02-17T12:40:20.224Z,80.30
2023-02-17T12:41:20.203Z,80.19
2023-02-17T12:42:20.175Z,80.30
2023-02-17T12:43:21.845Z,80.50
2023-02-17T12:44:20.160Z,80.71
2023-02-17T12:45:20.200Z,80.80
2023-02-17T12:46:20.213Z,81.01
2023-02-17T12:47:20.132Z,80.91
2023-02-17T12:48:20.134Z,80.80
2023-02-17T12:49:20.078Z,80.71
2023-02-17T12:50:20.129Z,80.91
2023-02-17T12:51:20.066Z,81.11
2023-02-17T12:52:20.066Z,81.11
2023-02-17T12:53:20.073Z,81.11
2023-02-17T12:54:20.034Z,81.31